Burkeville, Texas
Current Conditions -  °F | °C
As of 8:35 AM on Sunday 23 Nov 2014 (Local Time) from KJAS Reporting Station
Overcast Overcast  
Wind Chill: 16°   Ceiling: 700
Heat Index: 16°   Visibility: 10mi
Dew Point: 15°   Wind: 8mph
Humidity: 95%   Direction: 210°SSW
Pressure: 29.63"   Gusts: NA
Location:  31°N, 93.67°W
Report Text: KJAS 231435Z AUTO 21007KT 10SM BKN007 OVC010 16/15 A2963 RMK AO2 T01550147
Loading
Personal Weather Stations






























Interactive Weather Map New forecast layout! Learn more

10-Day Weather Forecast

Advertisements
Track Severe Weather on mobile